F/d Athina — SW7686 — position and weather

sailwx.info

Track history (hours):
 
Tides and Currents Weather Stations Pressure Air Temp Water Temp Dewpoint Dewpoint Depression Visibility Wind Speed Wind Dir Waves Ship Positions

F/d Athina

Last reported at 2018-Jun-24 07:00 UTC. Time now 2018-Jun-24 07:26 UTC.
Position N 37°56' E 023°37'.

Length 35 m; draft 1.8 m.

Type: Ship (hazmat cat B). MMSI: 237247600.

Date/timePositionNaut miles runAvg speedWind from/ knotsBaromVisibWave heightAir tempDewpointWater temp
2018-Jun-24 07:00N 37°56' E 023°37'3 6.7
2018-Jun-24 06:30N 37°54' E 023°35'1223.2
2018-Jun-24 05:59N 37°44' E 023°25'0 0.4
2018-Jun-24 05:30N 37°45' E 023°25'1530.8
2018-Jun-24 05:01N 37°56' E 023°37'4 8.7
2018-Jun-24 04:31N 37°53' E 023°34'1122.5
2018-Jun-24 04:00N 37°44' E 023°24'3 0.4
2018-Jun-23 19:00N 37°43' E 023°21'917.7
2018-Jun-23 18:30N 37°49' E 023°29'1122.0
2018-Jun-23 18:00N 37°57' E 023°39'0 0.0
2018-Jun-23 17:31N 37°57' E 023°39'1325.0
2018-Jun-23 17:00N 37°48' E 023°27'714.0
2018-Jun-23 16:30N 37°43' E 023°21'612.1
2018-Jun-23 16:01N 37°47' E 023°26'1427.1
2018-Jun-23 15:30N 37°57' E 023°38'612.2
2018-Jun-23 15:01N 37°52' E 023°33'1019.0
2018-Jun-23 14:30N 37°45' E 023°26'0 0.2
2018-Jun-23 14:00N 37°45' E 023°26'1020.5
2018-Jun-23 13:30N 37°53' E 023°34'611.4
2018-Jun-23 13:00N 37°57' E 023°39'1326.3
2018-Jun-23 12:30N 37°47' E 023°27'612.9
2018-Jun-23 12:00N 37°43' E 023°21'1428.0
2018-Jun-23 11:30N 37°54' E 023°32'612.3
2018-Jun-23 11:00N 37°57' E 023°39'1020.9
2018-Jun-23 10:30N 37°51' E 023°27'815.8
2018-Jun-23 10:00N 37°44' E 023°23'816.2
2018-Jun-23 09:31N 37°51' E 023°28'1019.4
2018-Jun-23 09:00N 37°57' E 023°39'1019.6
2018-Jun-23 08:30N 37°52' E 023°28'1020.3
2018-Jun-23 08:00N 37°43' E 023°21'5 9.3
2018-Jun-23 07:30N 37°47' E 023°25'1427.9
2018-Jun-23 07:00N 37°56' E 023°38'510.7
2018-Jun-23 06:31N 37°54' E 023°32'1121.5
2018-Jun-23 06:00N 37°45' E 023°25'0 0.3
2018-Jun-23 05:29N 37°45' E 023°26'1428.6
2018-Jun-23 05:00N 37°56' E 023°36'0 0.0
2018-Jun-23 04:31N 37°56' E 023°36'1422.4
2018-Jun-23 03:54N 37°45' E 023°26'4 0.5
2018-Jun-22 18:59N 37°43' E 023°21'714.1
2018-Jun-22 18:30N 37°47' E 023°27'1325.0
2018-Jun-22 17:59N 37°57' E 023°39'3 5.5
2018-Jun-22 17:31N 37°55' E 023°36'1325.6
2018-Jun-22 17:00N 37°45' E 023°26'1 1.6
2018-Jun-22 16:31N 37°44' E 023°25'1019.9
2018-Jun-22 16:01N 37°52' E 023°33'612.9
2018-Jun-22 15:30N 37°57' E 023°39'1121.1
2018-Jun-22 15:01N 37°49' E 023°29'917.7
2018-Jun-22 14:30N 37°43' E 023°21'4 7.7
2018-Jun-22 14:00N 37°45' E 023°25'1529.7
2018-Jun-22 13:30N 37°56' E 023°37'0 0.6
2018-Jun-22 13:00N 37°56' E 023°37'1529.9
2018-Jun-22 12:30N 37°45' E 023°25'2 4.1
2018-Jun-22 12:00N 37°44' E 023°23'1632.1
2018-Jun-22 11:31N 37°56' E 023°36'1 1.8
2018-Jun-22 11:01N 37°56' E 023°37'1631.5
2018-Jun-22 10:30N 37°45' E 023°23'2 4.2
2018-Jun-22 10:00N 37°45' E 023°26'1121.8
2018-Jun-22 09:31N 37°53' E 023°34'510.0
2018-Jun-22 09:00N 37°57' E 023°39'1326.9
2018-Jun-22 08:30N 37°47' E 023°26'612.3
2018-Jun-22 08:00N 37°43' E 023°21'918.2
2018-Jun-22 07:31N 37°49' E 023°29'1121.0
2018-Jun-22 07:00N 37°57' E 023°39'714.3
2018-Jun-22 06:31N 37°51' E 023°33'918.8
2018-Jun-22 06:01N 37°44' E 023°25'0 0.9
2018-Jun-22 05:29N 37°45' E 023°25'1531.7
2018-Jun-22 05:01N 37°56' E 023°37'3 6.2
2018-Jun-22 04:31N 37°54' E 023°35'1220.9
2018-Jun-22 03:57N 37°45' E 023°26'4 0.4
2018-Jun-21 18:33N 37°43' E 023°21'0 2.3
2018-Jun-21 18:31N 37°43' E 023°21'816.9
2018-Jun-21 18:00N 37°49' E 023°29'1122.1
2018-Jun-21 17:30N 37°57' E 023°39'714.3
2018-Jun-21 17:00N 37°51' E 023°32'1020.7
2018-Jun-21 16:31N 37°44' E 023°23'2 3.1
2018-Jun-21 16:00N 37°45' E 023°25'1530.3
2018-Jun-21 15:30N 37°56' E 023°37'4 8.8
2018-Jun-21 15:01N 37°53' E 023°34'1120.3
2018-Jun-21 14:29N 37°45' E 023°26'0 0.0
2018-Jun-21 13:56N 37°45' E 023°26'1229.5
2018-Jun-21 13:31N 37°54' E 023°35'2 3.9
2018-Jun-21 13:00N 37°56' E 023°37'1428.8
2018-Jun-21 12:30N 37°45' E 023°26'1 2.7
2018-Jun-21 12:00N 37°45' E 023°24'1530.5
2018-Jun-21 11:30N 37°56' E 023°38'0 0.3
2018-Jun-21 11:00N 37°56' E 023°37'1631.3
2018-Jun-21 10:30N 37°45' E 023°24'2 3.0
2018-Jun-21 09:58N 37°45' E 023°26'1329.5
2018-Jun-21 09:31N 37°55' E 023°36'2 3.4
2018-Jun-21 09:01N 37°56' E 023°38'1530.1
2018-Jun-21 08:31N 37°45' E 023°25'2 4.5
2018-Jun-21 08:01N 37°44' E 023°23'918.9
2018-Jun-21 07:30N 37°50' E 023°31'816.9
2018-Jun-21 07:00N 37°57' E 023°39'1019.6
2018-Jun-21 06:31N 37°50' E 023°30'815.0
2018-Jun-21 06:01N 37°44' E 023°23'1 2.8
2018-Jun-21 05:30N 37°45' E 023°25'1530.0
2018-Jun-21 05:00N 37°56' E 023°38'2 4.1
2018-Jun-21 04:31N 37°55' E 023°36'1325.7
2018-Jun-21 04:00N 37°45' E 023°26'3 6.5
2018-Jun-21 03:30N 37°43' E 023°22'1631.9
2018-Jun-21 03:00N 37°55' E 023°36'3 0.2
2018-Jun-20 15:20N 37°57' E 023°39'720.5
2018-Jun-20 14:59N 37°51' E 023°33'917.9
2018-Jun-20 14:30N 37°45' E 023°26'0 0.1
2018-Jun-20 13:57N 37°45' E 023°26'1228.7
2018-Jun-20 13:31N 37°55' E 023°35'2 4.0
2018-Jun-20 13:00N 37°56' E 023°37'1421.6
2018-Jun-20 12:20N 37°45' E 023°26'411.6
2018-Jun-20 12:00N 37°43' E 023°21'1631.7
2018-Jun-20 11:30N 37°55' E 023°35'3 5.6
2018-Jun-20 11:01N 37°56' E 023°38'1428.7
2018-Jun-20 10:30N 37°46' E 023°25'2 2.8
2018-Jun-20 09:51N 37°45' E 023°26'1027.4
2018-Jun-20 09:31N 37°52' E 023°33'612.2
2018-Jun-20 09:00N 37°57' E 023°38'1326.7
2018-Jun-20 08:30N 37°47' E 023°27'612.7
2018-Jun-20 08:00N 37°43' E 023°21'918.5
2018-Jun-20 07:30N 37°49' E 023°30'1020.8
2018-Jun-20 07:00N 37°57' E 023°39'815.5
2018-Jun-20 06:30N 37°51' E 023°32'918.4
2018-Jun-20 06:00N 37°44' E 023°24'1 2.5
2018-Jun-20 05:29N 37°44' E 023°25'1430.0
2018-Jun-20 05:01N 37°56' E 023°36'0 0.9
2018-Jun-20 04:30N 37°55' E 023°36'1421.8
2018-Jun-20 03:53N 37°44' E 023°25'4 0.4
2018-Jun-19 18:17N 37°43' E 023°21'414.1
2018-Jun-19 18:00N 37°45' E 023°25'1530.1
2018-Jun-19 17:31N 37°56' E 023°37'0 0.4
2018-Jun-19 17:00N 37°56' E 023°37'1529.6
2018-Jun-19 16:30N 37°45' E 023°25'1 2.1
2018-Jun-19 16:00N 37°44' E 023°24'1019.5
2018-Jun-19 15:30N 37°51' E 023°33'714.0
2018-Jun-19 15:00N 37°57' E 023°38'1427.4
2018-Jun-19 14:30N 37°47' E 023°26'611.1
2018-Jun-19 14:00N 37°43' E 023°21'1020.3
2018-Jun-19 13:30N 37°49' E 023°31'1019.2
2018-Jun-19 13:01N 37°57' E 023°39'1224.1
2018-Jun-19 12:30N 37°48' E 023°28'815.1
2018-Jun-19 12:00N 37°43' E 023°21'918.7
2018-Jun-19 11:30N 37°49' E 023°30'1020.6
2018-Jun-19 11:00N 37°57' E 023°39'612.9
2018-Jun-19 10:31N 37°52' E 023°33'1325.9
2018-Jun-19 10:00N 37°43' E 023°21'714.7
2018-Jun-19 09:30N 37°48' E 023°28'1224.9
2018-Jun-19 09:01N 37°57' E 023°39'714.9
2018-Jun-19 08:31N 37°51' E 023°32'1121.3
2018-Jun-19 08:00N 37°44' E 023°22'4 8.3
2018-Jun-19 07:30N 37°47' E 023°26'1428.0
2018-Jun-19 07:00N 37°57' E 023°38'611.4
2018-Jun-19 06:31N 37°52' E 023°34'1020.6
2018-Jun-19 06:00N 37°44' E 023°25'0 0.4
2018-Jun-19 05:29N 37°45' E 023°25'1430.4
2018-Jun-19 05:01N 37°56' E 023°36'0 1.0
2018-Jun-19 04:31N 37°55' E 023°36'1422.2
2018-Jun-19 03:53N 37°45' E 023°25'4 0.4
2018-Jun-18 18:10N 37°43' E 023°21'415.5
2018-Jun-18 17:55N 37°45' E 023°26'1229.8
2018-Jun-18 17:30N 37°54' E 023°35'4 6.5
2018-Jun-18 16:57N 37°57' E 023°38'1227.8
2018-Jun-18 16:31N 37°47' E 023°27'713.7
2018-Jun-18 16:00N 37°43' E 023°21'1019.3
2018-Jun-18 15:30N 37°49' E 023°30'1020.1
2018-Jun-18 15:01N 37°57' E 023°39'1223.4
2018-Jun-18 14:31N 37°48' E 023°28'815.7
2018-Jun-18 14:00N 37°43' E 023°21'816.4
2018-Jun-18 13:31N 37°48' E 023°29'1223.0
2018-Jun-18 13:00N 37°57' E 023°39'1020.2
2018-Jun-18 12:30N 37°49' E 023°30'1019.3
2018-Jun-18 12:00N 37°43' E 023°21'1325.4
2018-Jun-18 11:31N 37°51' E 023°33'713.6
2018-Jun-18 11:00N 37°57' E 023°39'714.2
2018-Jun-18 10:31N 37°51' E 023°33'1325.5
2018-Jun-18 10:01N 37°43' E 023°21'816.3
2018-Jun-18 09:30N 37°48' E 023°29'1123.0
2018-Jun-18 09:00N 37°57' E 023°39'918.2
2018-Jun-18 08:31N 37°50' E 023°31'1120.8
2018-Jun-18 08:00N 37°43' E 023°21'612.4
2018-Jun-18 07:31N 37°47' E 023°27'1326.2
2018-Jun-18 07:00N 37°57' E 023°39'1017.0
2018-Jun-18 06:25N 37°49' E 023°30'717.1
2018-Jun-18 06:01N 37°44' E 023°24'1 1.8
2018-Jun-18 05:31N 37°45' E 023°25'1530.4
2018-Jun-18 05:00N 37°56' E 023°37'3 6.2
2018-Jun-18 04:31N 37°54' E 023°35'1220.2
2018-Jun-18 03:55N 37°45' E 023°25'4 0.5
2018-Jun-17 20:19N 37°43' E 023°21'827.3
2018-Jun-17 20:01N 37°48' E 023°29'1122.6
2018-Jun-17 19:30N 37°57' E 023°39'0 0.0
2018-Jun-17 19:00N 37°57' E 023°39'1325.4
2018-Jun-17 18:30N 37°48' E 023°27'713.3
2018-Jun-17 17:59N 37°43' E 023°21'1327.2
2018-Jun-17 17:30N 37°52' E 023°33'612.5
2018-Jun-17 17:01N 37°56' E 023°38'1428.8
2018-Jun-17 16:30N 37°46' E 023°25'5 9.4
2018-Jun-17 16:00N 37°43' E 023°21'1530.6
2018-Jun-17 15:30N 37°54' E 023°35'4 7.0
2018-Jun-17 15:01N 37°56' E 023°37'1530.3
2018-Jun-17 14:30N 37°45' E 023°24'4 7.3
2018-Jun-17 14:01N 37°43' E 023°21'1019.5
2018-Jun-17 13:30N 37°50' E 023°30'1019.6
2018-Jun-17 13:00N 37°57' E 023°39'1122.4
2018-Jun-17 12:31N 37°49' E 023°29'816.2
2018-Jun-17 12:00N 37°43' E 023°21'1019.7
2018-Jun-17 11:30N 37°50' E 023°30'918.9
2018-Jun-17 11:00N 37°57' E 023°39'510.8
2018-Jun-17 10:31N 37°53' E 023°34'1427.8
2018-Jun-17 10:00N 37°43' E 023°21'714.6
2018-Jun-17 09:30N 37°48' E 023°27'1324.3
2018-Jun-17 09:00N 37°57' E 023°39'4 7.5
2018-Jun-17 08:30N 37°54' E 023°35'1223.2
2018-Jun-17 07:59N 37°45' E 023°26'0 0.2
2018-Jun-17 07:28N 37°45' E 023°25'1430.5
2018-Jun-17 07:00N 37°56' E 023°37'3 6.9
2018-Jun-17 06:31N 37°53' E 023°34'1120.7
2018-Jun-17 05:59N 37°45' E 023°25'0 0.1
2018-Jun-17 05:29N 37°45' E 023°25'1430.5
2018-Jun-17 05:01N 37°56' E 023°37'0 0.8
2018-Jun-17 04:31N 37°56' E 023°36'1422.1
2018-Jun-17 03:53N 37°45' E 023°26'4 0.4
2018-Jun-16 18:07N 37°43' E 023°21'413.5
2018-Jun-16 17:49N 37°45' E 023°25'1032.0
2018-Jun-16 17:30N 37°53' E 023°34'611.2
2018-Jun-16 17:01N 37°57' E 023°39'1224.0
2018-Jun-16 16:30N 37°48' E 023°28'815.3
2018-Jun-16 16:01N 37°43' E 023°21'816.7
2018-Jun-16 15:31N 37°48' E 023°29'1122.3
2018-Jun-16 15:00N 37°57' E 023°39'1020.8
2018-Jun-16 14:30N 37°49' E 023°30'918.4
2018-Jun-16 14:00N 37°43' E 023°21'815.3
2018-Jun-16 13:30N 37°48' E 023°28'1224.1
2018-Jun-16 13:00N 37°57' E 023°39'816.2
2018-Jun-16 12:30N 37°51' E 023°32'1121.0
2018-Jun-16 11:59N 37°43' E 023°22'815.7
2018-Jun-16 11:30N 37°49' E 023°28'1122.8
2018-Jun-16 11:00N 37°57' E 023°39'713.8
2018-Jun-16 10:31N 37°52' E 023°33'1325.4
2018-Jun-16 10:00N 37°43' E 023°21'817.0
2018-Jun-16 09:31N 37°49' E 023°29'1122.4
2018-Jun-16 09:00N 37°57' E 023°39'1019.7
2018-Jun-16 08:30N 37°49' E 023°30'1019.5
2018-Jun-16 08:00N 37°43' E 023°21'612.1
2018-Jun-16 07:30N 37°47' E 023°26'1426.6
2018-Jun-16 07:00N 37°57' E 023°38'612.4
2018-Jun-16 06:31N 37°54' E 023°32'1121.4
2018-Jun-16 06:01N 37°45' E 023°25'0 0.9
2018-Jun-16 05:30N 37°45' E 023°25'1429.0
2018-Jun-16 05:01N 37°56' E 023°37'1 2.9
2018-Jun-16 04:31N 37°56' E 023°35'1322.2
2018-Jun-16 03:55N 37°45' E 023°26'4 0.5
2018-Jun-15 18:58N 37°43' E 023°21'511.3
2018-Jun-15 18:30N 37°47' E 023°25'1427.8
2018-Jun-15 18:00N 37°56' E 023°38'0 0.6
2018-Jun-15 17:31N 37°56' E 023°38'1428.3
2018-Jun-15 17:00N 37°46' E 023°25'5 9.3
2018-Jun-15 16:30N 37°43' E 023°21'816.2
2018-Jun-15 16:00N 37°49' E 023°28'1222.3
2018-Jun-15 15:29N 37°57' E 023°39'816.0
2018-Jun-15 15:00N 37°53' E 023°30'918.9
2018-Jun-15 14:31N 37°44' E 023°25'1 1.1
2018-Jun-15 13:57N 37°45' E 023°26'1227.9
2018-Jun-15 13:31N 37°55' E 023°34'4 7.2
2018-Jun-15 13:00N 37°56' E 023°38'1527.1
2018-Jun-15 12:28N 37°46' E 023°25'4 9.2
2018-Jun-15 11:59N 37°43' E 023°21'1326.2
2018-Jun-15 11:31N 37°53' E 023°30'815.1
2018-Jun-15 11:00N 37°57' E 023°39'714.8
2018-Jun-15 10:30N 37°53' E 023°30'1325.6
2018-Jun-15 10:00N 37°43' E 023°21'917.3
2018-Jun-15 09:30N 37°49' E 023°29'1122.0
2018-Jun-15 09:01N 37°57' E 023°39'1121.3
2018-Jun-15 08:31N 37°49' E 023°29'917.9
2018-Jun-15 08:01N 37°43' E 023°21'815.8
2018-Jun-15 07:30N 37°48' E 023°28'1223.4
2018-Jun-15 07:00N 37°57' E 023°39'713.5
2018-Jun-15 06:30N 37°52' E 023°33'917.6
2018-Jun-15 05:59N 37°45' E 023°26'0 0.1
2018-Jun-15 05:28N 37°45' E 023°25'1430.5
2018-Jun-15 05:01N 37°56' E 023°37'1 2.4
2018-Jun-15 04:31N 37°55' E 023°36'1320.8
2018-Jun-15 03:53N 37°45' E 023°26'4 0.3
2018-Jun-14 16:06N 37°43' E 023°21'220.2
2018-Jun-14 16:01N 37°44' E 023°23'1019.0
2018-Jun-14 15:31N 37°50' E 023°31'816.8
2018-Jun-14 15:00N 37°57' E 023°39'611.8
2018-Jun-14 14:31N 37°53' E 023°33'1122.1
2018-Jun-14 14:01N 37°44' E 023°24'1 2.1
2018-Jun-14 13:30N 37°45' E 023°25'1530.3
2018-Jun-14 13:00N 37°56' E 023°38'4 8.1
2018-Jun-14 12:31N 37°53' E 023°34'1121.7
2018-Jun-14 12:00N 37°45' E 023°26'4 1.0
2018-Jun-14 08:00N 37°43' E 023°21'918.8
2018-Jun-14 07:30N 37°49' E 023°30'  
Track history (hours):
 
Tides and Currents Weather Stations Pressure Air Temp Water Temp Dewpoint Dewpoint Depression Visibility Wind Speed Wind Dir Waves Ship Positions

F/d Athina

Last reported at 2018-Jun-24 07:00 UTC. Time now 2018-Jun-24 07:26 UTC.
Position N 37°56' E 023°37'.

Length 35 m; draft 1.8 m.

Type: Ship (hazmat cat B). MMSI: 237247600.

Date/timePositionNaut miles runAvg speedWind from/ knotsBaromVisibWave heightAir tempDewpointWater temp
2018-Jun-24 07:00N 37°56' E 023°37'3 6.7
2018-Jun-24 06:30N 37°54' E 023°35'1223.2
2018-Jun-24 05:59N 37°44' E 023°25'0 0.4
2018-Jun-24 05:30N 37°45' E 023°25'1530.8
2018-Jun-24 05:01N 37°56' E 023°37'4 8.7
2018-Jun-24 04:31N 37°53' E 023°34'1122.5
2018-Jun-24 04:00N 37°44' E 023°24'3 0.4
2018-Jun-23 19:00N 37°43' E 023°21'917.7
2018-Jun-23 18:30N 37°49' E 023°29'1122.0
2018-Jun-23 18:00N 37°57' E 023°39'0 0.0
2018-Jun-23 17:31N 37°57' E 023°39'1325.0
2018-Jun-23 17:00N 37°48' E 023°27'714.0
2018-Jun-23 16:30N 37°43' E 023°21'612.1
2018-Jun-23 16:01N 37°47' E 023°26'1427.1
2018-Jun-23 15:30N 37°57' E 023°38'612.2
2018-Jun-23 15:01N 37°52' E 023°33'1019.0
2018-Jun-23 14:30N 37°45' E 023°26'0 0.2
2018-Jun-23 14:00N 37°45' E 023°26'1020.5
2018-Jun-23 13:30N 37°53' E 023°34'611.4
2018-Jun-23 13:00N 37°57' E 023°39'1326.3
2018-Jun-23 12:30N 37°47' E 023°27'612.9
2018-Jun-23 12:00N 37°43' E 023°21'1428.0
2018-Jun-23 11:30N 37°54' E 023°32'612.3
2018-Jun-23 11:00N 37°57' E 023°39'1020.9
2018-Jun-23 10:30N 37°51' E 023°27'815.8
2018-Jun-23 10:00N 37°44' E 023°23'816.2
2018-Jun-23 09:31N 37°51' E 023°28'1019.4
2018-Jun-23 09:00N 37°57' E 023°39'1019.6
2018-Jun-23 08:30N 37°52' E 023°28'1020.3
2018-Jun-23 08:00N 37°43' E 023°21'5 9.3
2018-Jun-23 07:30N 37°47' E 023°25'1427.9
2018-Jun-23 07:00N 37°56' E 023°38'510.7
2018-Jun-23 06:31N 37°54' E 023°32'1121.5
2018-Jun-23 06:00N 37°45' E 023°25'0 0.3
2018-Jun-23 05:29N 37°45' E 023°26'1428.6
2018-Jun-23 05:00N 37°56' E 023°36'0 0.0
2018-Jun-23 04:31N 37°56' E 023°36'1422.4
2018-Jun-23 03:54N 37°45' E 023°26'4 0.5
2018-Jun-22 18:59N 37°43' E 023°21'714.1
2018-Jun-22 18:30N 37°47' E 023°27'1325.0
2018-Jun-22 17:59N 37°57' E 023°39'3 5.5
2018-Jun-22 17:31N 37°55' E 023°36'1325.6
2018-Jun-22 17:00N 37°45' E 023°26'1 1.6
2018-Jun-22 16:31N 37°44' E 023°25'1019.9
2018-Jun-22 16:01N 37°52' E 023°33'612.9
2018-Jun-22 15:30N 37°57' E 023°39'1121.1
2018-Jun-22 15:01N 37°49' E 023°29'917.7
2018-Jun-22 14:30N 37°43' E 023°21'4 7.7
2018-Jun-22 14:00N 37°45' E 023°25'1529.7
2018-Jun-22 13:30N 37°56' E 023°37'0 0.6
2018-Jun-22 13:00N 37°56' E 023°37'1529.9
2018-Jun-22 12:30N 37°45' E 023°25'2 4.1
2018-Jun-22 12:00N 37°44' E 023°23'1632.1
2018-Jun-22 11:31N 37°56' E 023°36'1 1.8
2018-Jun-22 11:01N 37°56' E 023°37'1631.5
2018-Jun-22 10:30N 37°45' E 023°23'2 4.2
2018-Jun-22 10:00N 37°45' E 023°26'1121.8
2018-Jun-22 09:31N 37°53' E 023°34'510.0
2018-Jun-22 09:00N 37°57' E 023°39'1326.9
2018-Jun-22 08:30N 37°47' E 023°26'612.3
2018-Jun-22 08:00N 37°43' E 023°21'918.2
2018-Jun-22 07:31N 37°49' E 023°29'1121.0
2018-Jun-22 07:00N 37°57' E 023°39'714.3
2018-Jun-22 06:31N 37°51' E 023°33'918.8
2018-Jun-22 06:01N 37°44' E 023°25'0 0.9
2018-Jun-22 05:29N 37°45' E 023°25'1531.7
2018-Jun-22 05:01N 37°56' E 023°37'3 6.2
2018-Jun-22 04:31N 37°54' E 023°35'1220.9
2018-Jun-22 03:57N 37°45' E 023°26'4 0.4
2018-Jun-21 18:33N 37°43' E 023°21'0 2.3
2018-Jun-21 18:31N 37°43' E 023°21'816.9
2018-Jun-21 18:00N 37°49' E 023°29'1122.1
2018-Jun-21 17:30N 37°57' E 023°39'714.3
2018-Jun-21 17:00N 37°51' E 023°32'1020.7
2018-Jun-21 16:31N 37°44' E 023°23'2 3.1
2018-Jun-21 16:00N 37°45' E 023°25'1530.3
2018-Jun-21 15:30N 37°56' E 023°37'4 8.8
2018-Jun-21 15:01N 37°53' E 023°34'1120.3
2018-Jun-21 14:29N 37°45' E 023°26'0 0.0
2018-Jun-21 13:56N 37°45' E 023°26'1229.5
2018-Jun-21 13:31N 37°54' E 023°35'2 3.9
2018-Jun-21 13:00N 37°56' E 023°37'1428.8
2018-Jun-21 12:30N 37°45' E 023°26'1 2.7
2018-Jun-21 12:00N 37°45' E 023°24'1530.5
2018-Jun-21 11:30N 37°56' E 023°38'0 0.3
2018-Jun-21 11:00N 37°56' E 023°37'1631.3
2018-Jun-21 10:30N 37°45' E 023°24'2 3.0
2018-Jun-21 09:58N 37°45' E 023°26'1329.5
2018-Jun-21 09:31N 37°55' E 023°36'2 3.4
2018-Jun-21 09:01N 37°56' E 023°38'1530.1
2018-Jun-21 08:31N 37°45' E 023°25'2 4.5
2018-Jun-21 08:01N 37°44' E 023°23'918.9
2018-Jun-21 07:30N 37°50' E 023°31'816.9
2018-Jun-21 07:00N 37°57' E 023°39'1019.6
2018-Jun-21 06:31N 37°50' E 023°30'815.0
2018-Jun-21 06:01N 37°44' E 023°23'1 2.8
2018-Jun-21 05:30N 37°45' E 023°25'1530.0
2018-Jun-21 05:00N 37°56' E 023°38'2 4.1
2018-Jun-21 04:31N 37°55' E 023°36'1325.7
2018-Jun-21 04:00N 37°45' E 023°26'3 6.5
2018-Jun-21 03:30N 37°43' E 023°22'1631.9
2018-Jun-21 03:00N 37°55' E 023°36'3 0.2
2018-Jun-20 15:20N 37°57' E 023°39'720.5
2018-Jun-20 14:59N 37°51' E 023°33'917.9
2018-Jun-20 14:30N 37°45' E 023°26'0 0.1
2018-Jun-20 13:57N 37°45' E 023°26'1228.7
2018-Jun-20 13:31N 37°55' E 023°35'2 4.0
2018-Jun-20 13:00N 37°56' E 023°37'1421.6
2018-Jun-20 12:20N 37°45' E 023°26'411.6
2018-Jun-20 12:00N 37°43' E 023°21'1631.7
2018-Jun-20 11:30N 37°55' E 023°35'3 5.6
2018-Jun-20 11:01N 37°56' E 023°38'1428.7
2018-Jun-20 10:30N 37°46' E 023°25'2 2.8
2018-Jun-20 09:51N 37°45' E 023°26'1027.4
2018-Jun-20 09:31N 37°52' E 023°33'612.2
2018-Jun-20 09:00N 37°57' E 023°38'1326.7
2018-Jun-20 08:30N 37°47' E 023°27'612.7
2018-Jun-20 08:00N 37°43' E 023°21'918.5
2018-Jun-20 07:30N 37°49' E 023°30'1020.8
2018-Jun-20 07:00N 37°57' E 023°39'815.5
2018-Jun-20 06:30N 37°51' E 023°32'918.4
2018-Jun-20 06:00N 37°44' E 023°24'1 2.5
2018-Jun-20 05:29N 37°44' E 023°25'1430.0
2018-Jun-20 05:01N 37°56' E 023°36'0 0.9
2018-Jun-20 04:30N 37°55' E 023°36'1421.8
2018-Jun-20 03:53N 37°44' E 023°25'4 0.4
2018-Jun-19 18:17N 37°43' E 023°21'414.1
2018-Jun-19 18:00N 37°45' E 023°25'1530.1
2018-Jun-19 17:31N 37°56' E 023°37'0 0.4
2018-Jun-19 17:00N 37°56' E 023°37'1529.6
2018-Jun-19 16:30N 37°45' E 023°25'1 2.1
2018-Jun-19 16:00N 37°44' E 023°24'1019.5
2018-Jun-19 15:30N 37°51' E 023°33'714.0
2018-Jun-19 15:00N 37°57' E 023°38'1427.4
2018-Jun-19 14:30N 37°47' E 023°26'611.1
2018-Jun-19 14:00N 37°43' E 023°21'1020.3
2018-Jun-19 13:30N 37°49' E 023°31'1019.2
2018-Jun-19 13:01N 37°57' E 023°39'1224.1
2018-Jun-19 12:30N 37°48' E 023°28'815.1
2018-Jun-19 12:00N 37°43' E 023°21'918.7
2018-Jun-19 11:30N 37°49' E 023°30'1020.6
2018-Jun-19 11:00N 37°57' E 023°39'612.9
2018-Jun-19 10:31N 37°52' E 023°33'1325.9
2018-Jun-19 10:00N 37°43' E 023°21'714.7
2018-Jun-19 09:30N 37°48' E 023°28'1224.9
2018-Jun-19 09:01N 37°57' E 023°39'714.9
2018-Jun-19 08:31N 37°51' E 023°32'1121.3
2018-Jun-19 08:00N 37°44' E 023°22'4 8.3
2018-Jun-19 07:30N 37°47' E 023°26'1428.0
2018-Jun-19 07:00N 37°57' E 023°38'611.4
2018-Jun-19 06:31N 37°52' E 023°34'1020.6
2018-Jun-19 06:00N 37°44' E 023°25'0 0.4
2018-Jun-19 05:29N 37°45' E 023°25'1430.4
2018-Jun-19 05:01N 37°56' E 023°36'0 1.0
2018-Jun-19 04:31N 37°55' E 023°36'1422.2
2018-Jun-19 03:53N 37°45' E 023°25'4 0.4
2018-Jun-18 18:10N 37°43' E 023°21'415.5
2018-Jun-18 17:55N 37°45' E 023°26'1229.8
2018-Jun-18 17:30N 37°54' E 023°35'4 6.5
2018-Jun-18 16:57N 37°57' E 023°38'1227.8
2018-Jun-18 16:31N 37°47' E 023°27'713.7
2018-Jun-18 16:00N 37°43' E 023°21'1019.3
2018-Jun-18 15:30N 37°49' E 023°30'1020.1
2018-Jun-18 15:01N 37°57' E 023°39'1223.4
2018-Jun-18 14:31N 37°48' E 023°28'815.7
2018-Jun-18 14:00N 37°43' E 023°21'816.4
2018-Jun-18 13:31N 37°48' E 023°29'1223.0
2018-Jun-18 13:00N 37°57' E 023°39'1020.2
2018-Jun-18 12:30N 37°49' E 023°30'1019.3
2018-Jun-18 12:00N 37°43' E 023°21'1325.4
2018-Jun-18 11:31N 37°51' E 023°33'713.6
2018-Jun-18 11:00N 37°57' E 023°39'714.2
2018-Jun-18 10:31N 37°51' E 023°33'1325.5
2018-Jun-18 10:01N 37°43' E 023°21'816.3
2018-Jun-18 09:30N 37°48' E 023°29'1123.0
2018-Jun-18 09:00N 37°57' E 023°39'918.2
2018-Jun-18 08:31N 37°50' E 023°31'1120.8
2018-Jun-18 08:00N 37°43' E 023°21'612.4
2018-Jun-18 07:31N 37°47' E 023°27'1326.2
2018-Jun-18 07:00N 37°57' E 023°39'1017.0
2018-Jun-18 06:25N 37°49' E 023°30'717.1
2018-Jun-18 06:01N 37°44' E 023°24'1 1.8
2018-Jun-18 05:31N 37°45' E 023°25'1530.4
2018-Jun-18 05:00N 37°56' E 023°37'3 6.2
2018-Jun-18 04:31N 37°54' E 023°35'1220.2
2018-Jun-18 03:55N 37°45' E 023°25'4 0.5
2018-Jun-17 20:19N 37°43' E 023°21'827.3
2018-Jun-17 20:01N 37°48' E 023°29'1122.6
2018-Jun-17 19:30N 37°57' E 023°39'0 0.0
2018-Jun-17 19:00N 37°57' E 023°39'1325.4
2018-Jun-17 18:30N 37°48' E 023°27'713.3
2018-Jun-17 17:59N 37°43' E 023°21'1327.2
2018-Jun-17 17:30N 37°52' E 023°33'612.5
2018-Jun-17 17:01N 37°56' E 023°38'1428.8
2018-Jun-17 16:30N 37°46' E 023°25'5 9.4
2018-Jun-17 16:00N 37°43' E 023°21'1530.6
2018-Jun-17 15:30N 37°54' E 023°35'4 7.0
2018-Jun-17 15:01N 37°56' E 023°37'1530.3
2018-Jun-17 14:30N 37°45' E 023°24'4 7.3
2018-Jun-17 14:01N 37°43' E 023°21'1019.5
2018-Jun-17 13:30N 37°50' E 023°30'1019.6
2018-Jun-17 13:00N 37°57' E 023°39'1122.4
2018-Jun-17 12:31N 37°49' E 023°29'816.2
2018-Jun-17 12:00N 37°43' E 023°21'1019.7
2018-Jun-17 11:30N 37°50' E 023°30'918.9
2018-Jun-17 11:00N 37°57' E 023°39'510.8
2018-Jun-17 10:31N 37°53' E 023°34'1427.8
2018-Jun-17 10:00N 37°43' E 023°21'714.6
2018-Jun-17 09:30N 37°48' E 023°27'1324.3
2018-Jun-17 09:00N 37°57' E 023°39'4 7.5
2018-Jun-17 08:30N 37°54' E 023°35'1223.2
2018-Jun-17 07:59N 37°45' E 023°26'0 0.2
2018-Jun-17 07:28N 37°45' E 023°25'1430.5
2018-Jun-17 07:00N 37°56' E 023°37'3 6.9
2018-Jun-17 06:31N 37°53' E 023°34'1120.7
2018-Jun-17 05:59N 37°45' E 023°25'0 0.1
2018-Jun-17 05:29N 37°45' E 023°25'1430.5
2018-Jun-17 05:01N 37°56' E 023°37'0 0.8
2018-Jun-17 04:31N 37°56' E 023°36'1422.1
2018-Jun-17 03:53N 37°45' E 023°26'4 0.4
2018-Jun-16 18:07N 37°43' E 023°21'413.5
2018-Jun-16 17:49N 37°45' E 023°25'1032.0
2018-Jun-16 17:30N 37°53' E 023°34'611.2
2018-Jun-16 17:01N 37°57' E 023°39'1224.0
2018-Jun-16 16:30N 37°48' E 023°28'815.3
2018-Jun-16 16:01N 37°43' E 023°21'816.7
2018-Jun-16 15:31N 37°48' E 023°29'1122.3
2018-Jun-16 15:00N 37°57' E 023°39'1020.8
2018-Jun-16 14:30N 37°49' E 023°30'918.4
2018-Jun-16 14:00N 37°43' E 023°21'815.3
2018-Jun-16 13:30N 37°48' E 023°28'1224.1
2018-Jun-16 13:00N 37°57' E 023°39'816.2
2018-Jun-16 12:30N 37°51' E 023°32'1121.0
2018-Jun-16 11:59N 37°43' E 023°22'815.7
2018-Jun-16 11:30N 37°49' E 023°28'1122.8
2018-Jun-16 11:00N 37°57' E 023°39'713.8
2018-Jun-16 10:31N 37°52' E 023°33'1325.4
2018-Jun-16 10:00N 37°43' E 023°21'817.0
2018-Jun-16 09:31N 37°49' E 023°29'1122.4
2018-Jun-16 09:00N 37°57' E 023°39'1019.7
2018-Jun-16 08:30N 37°49' E 023°30'1019.5
2018-Jun-16 08:00N 37°43' E 023°21'612.1
2018-Jun-16 07:30N 37°47' E 023°26'1426.6
2018-Jun-16 07:00N 37°57' E 023°38'612.4
2018-Jun-16 06:31N 37°54' E 023°32'1121.4
2018-Jun-16 06:01N 37°45' E 023°25'0 0.9
2018-Jun-16 05:30N 37°45' E 023°25'1429.0
2018-Jun-16 05:01N 37°56' E 023°37'1 2.9
2018-Jun-16 04:31N 37°56' E 023°35'1322.2
2018-Jun-16 03:55N 37°45' E 023°26'4 0.5
2018-Jun-15 18:58N 37°43' E 023°21'511.3
2018-Jun-15 18:30N 37°47' E 023°25'1427.8
2018-Jun-15 18:00N 37°56' E 023°38'0 0.6
2018-Jun-15 17:31N 37°56' E 023°38'1428.3
2018-Jun-15 17:00N 37°46' E 023°25'5 9.3
2018-Jun-15 16:30N 37°43' E 023°21'816.2
2018-Jun-15 16:00N 37°49' E 023°28'1222.3
2018-Jun-15 15:29N 37°57' E 023°39'816.0
2018-Jun-15 15:00N 37°53' E 023°30'918.9
2018-Jun-15 14:31N 37°44' E 023°25'1 1.1
2018-Jun-15 13:57N 37°45' E 023°26'1227.9
2018-Jun-15 13:31N 37°55' E 023°34'4 7.2
2018-Jun-15 13:00N 37°56' E 023°38'1527.1
2018-Jun-15 12:28N 37°46' E 023°25'4 9.2
2018-Jun-15 11:59N 37°43' E 023°21'1326.2
2018-Jun-15 11:31N 37°53' E 023°30'815.1
2018-Jun-15 11:00N 37°57' E 023°39'714.8
2018-Jun-15 10:30N 37°53' E 023°30'1325.6
2018-Jun-15 10:00N 37°43' E 023°21'917.3
2018-Jun-15 09:30N 37°49' E 023°29'1122.0
2018-Jun-15 09:01N 37°57' E 023°39'1121.3
2018-Jun-15 08:31N 37°49' E 023°29'917.9
2018-Jun-15 08:01N 37°43' E 023°21'815.8
2018-Jun-15 07:30N 37°48' E 023°28'1223.4
2018-Jun-15 07:00N 37°57' E 023°39'713.5
2018-Jun-15 06:30N 37°52' E 023°33'917.6
2018-Jun-15 05:59N 37°45' E 023°26'0 0.1
2018-Jun-15 05:28N 37°45' E 023°25'1430.5
2018-Jun-15 05:01N 37°56' E 023°37'1 2.4
2018-Jun-15 04:31N 37°55' E 023°36'1320.8
2018-Jun-15 03:53N 37°45' E 023°26'4 0.3
2018-Jun-14 16:06N 37°43' E 023°21'220.2
2018-Jun-14 16:01N 37°44' E 023°23'1019.0
2018-Jun-14 15:31N 37°50' E 023°31'816.8
2018-Jun-14 15:00N 37°57' E 023°39'611.8
2018-Jun-14 14:31N 37°53' E 023°33'1122.1
2018-Jun-14 14:01N 37°44' E 023°24'1 2.1
2018-Jun-14 13:30N 37°45' E 023°25'1530.3
2018-Jun-14 13:00N 37°56' E 023°38'4 8.1
2018-Jun-14 12:31N 37°53' E 023°34'1121.7
2018-Jun-14 12:00N 37°45' E 023°26'4 1.0
2018-Jun-14 08:00N 37°43' E 023°21'918.8
2018-Jun-14 07:30N 37°49' E 023°30'  

Dump ship's entire track history